CWDT 300500Z AUTO 05001KT RMK AO1 50001
From batch tds/metars/production/2022/9/30/h05_m55_metars.cache.csv.gz
Observed at (about 1 hour ago)
Identifier CWDT
CWEE 300500Z AUTO M00/M00 RMK AO1 SLP258 T10041003 50002
From batch tds/metars/production/2022/9/30/h05_m55_metars.cache.csv.gz
Observed at (about 1 hour ago)
Identifier CWEE
CZPS 300500Z AUTO 35011KT 12/09 RMK AO1 T01210091
From batch tds/metars/production/2022/9/30/h05_m55_metars.cache.csv.gz
Observed at (about 1 hour ago)
Identifier CZPS
DAAE 300500Z 25006KT CAVOK 17/14 Q1006
From batch tds/metars/production/2022/9/30/h05_m55_metars.cache.csv.gz
Observed at (about 1 hour ago)
Identifier DAAE
DAAJ 300500Z 05006KT CAVOK 22/M04 Q1013
From batch tds/metars/production/2022/9/30/h05_m55_metars.cache.csv.gz
Observed at (about 1 hour ago)
Identifier DAAJ
DXXX 300500Z 24006KT 9999 FEW010 24/23 Q1011 NOSIG
From batch tds/metars/production/2022/9/30/h05_m55_metars.cache.csv.gz
Observed at (about 1 hour ago)
Identifier DXXX
FDSK 300500Z 17007KT CAVOK 20/18 Q1021 NOSIG
From batch tds/metars/production/2022/9/30/h05_m55_metars.cache.csv.gz
Observed at (about 1 hour ago)
Identifier FDSK
FQIN 300500Z 00000KT 9999 FEW020 21/18 Q1018
From batch tds/metars/production/2022/9/30/h05_m55_metars.cache.csv.gz
Observed at (about 1 hour ago)
Identifier FQIN
HKEM 300500Z 16003KT 9999 OVC014 16/13
From batch tds/metars/production/2022/9/30/h05_m55_metars.cache.csv.gz
Observed at (about 1 hour ago)
Identifier HKEM
HKGA 300500Z 18006KT 9999 BKN022 25/20 Q1015
From batch tds/metars/production/2022/9/30/h05_m55_metars.cache.csv.gz
Observed at (about 1 hour ago)
Identifier HKGA
HKGO 300500Z AUTO 13005KT 16/15 Q1026 A30.31
From batch tds/metars/production/2022/9/30/h05_m55_metars.cache.csv.gz
Observed at (about 1 hour ago)
Identifier HKGO
HKKT 300500Z 00000KT CAVOK 14/13
From batch tds/metars/production/2022/9/30/h05_m55_metars.cache.csv.gz
Observed at (about 1 hour ago)
Identifier HKKT
HKLO 300500Z 10004KT CAVOK 27/16 Q1012
From batch tds/metars/production/2022/9/30/h05_m55_metars.cache.csv.gz
Observed at (about 1 hour ago)
Identifier HKLO
HKLU 300500Z 18006KT 9999 BKN022 26/21 Q1015
From batch tds/metars/production/2022/9/30/h05_m55_metars.cache.csv.gz
Observed at (about 1 hour ago)
Identifier HKLU
HKME 300500Z 00000KT 9999 FEW014 BKN090 15/13
From batch tds/metars/production/2022/9/30/h05_m55_metars.cache.csv.gz
Observed at (about 1 hour ago)
Identifier HKME
HKNI 300500Z 11004KT 9999 BKN017 15/13
From batch tds/metars/production/2022/9/30/h05_m55_metars.cache.csv.gz
Observed at (about 1 hour ago)
Identifier HKNI
HKNK 300500Z 00000KT CAVOK 15/12
From batch tds/metars/production/2022/9/30/h05_m55_metars.cache.csv.gz
Observed at (about 1 hour ago)
Identifier HKNK
HTDA 300500Z 18004KT 9000 VCFG FEW012 24/21 Q1018 NOSIG
From batch tds/metars/production/2022/9/30/h05_m55_metars.cache.csv.gz
Observed at (about 1 hour ago)
Identifier HTDA
HTKJ 300500Z 08007KT 9999 BKN024 19/15 Q1021 NOSIG
From batch tds/metars/production/2022/9/30/h05_m55_metars.cache.csv.gz
Observed at (about 1 hour ago)
Identifier HTKJ
HTMW 300500Z 12005KT 9999 FEW020 FEW021CB 23/20 Q1016 NOSIG
From batch tds/metars/production/2022/9/30/h05_m55_metars.cache.csv.gz
Observed at (about 1 hour ago)
Identifier HTMW
HTZA 300500Z 05010KT 9999 FEW014 BKN080 25/21 Q1017 NOSIG
From batch tds/metars/production/2022/9/30/h05_m55_metars.cache.csv.gz
Observed at (about 1 hour ago)
Identifier HTZA
OJAQ 300500Z 36012KT CAVOK 27/16 Q1013 NOSIG
From batch tds/metars/production/2022/9/30/h05_m55_metars.cache.csv.gz
Observed at (about 1 hour ago)
Identifier OJAQ
SASJ 300500Z 29005KT 9999 BKN060 13/09 Q1023 RMK PP000
From batch tds/metars/production/2022/9/30/h05_m55_metars.cache.csv.gz
Observed at (about 1 hour ago)
Identifier SASJ
RKTW 300512Z 31001KT 4800 BR FEW003 FEW200 23/19 A2996
From batch tds/metars/production/2022/9/30/h05_m55_metars.cache.csv.gz
Observed at (about 1 hour ago)
Identifier RKTW
LHDC 300515Z AUTO 06006KT CAVOK 13/12 Q1009 NOSIG
From batch tds/metars/production/2022/9/30/h05_m55_metars.cache.csv.gz
Observed at (about 1 hour ago)
Identifier LHDC
LHPP 300515Z AUTO 16005KT 9999 -SHRA NSC 13/13 Q1007
From batch tds/metars/production/2022/9/30/h05_m55_metars.cache.csv.gz
Observed at (about 1 hour ago)
Identifier LHPP
LIRP 300515Z 10011KT 9999 FEW025TCU BKN030 15/14 Q1005 NOSIG
From batch tds/metars/production/2022/9/30/h05_m55_metars.cache.csv.gz
Observed at (about 1 hour ago)
Identifier LIRP
KMTN 300519Z AUTO 00000KT 10SM CLR 12/08 A3032 RMK AO2
From batch tds/metars/production/2022/9/30/h05_m55_metars.cache.csv.gz
Observed at (about 1 hour ago)
Identifier KMTN
EBBR 300520Z 20005KT 6000 NSC 06/05 Q1009 TEMPO 4000 BR
From batch tds/metars/production/2022/9/30/h05_m55_metars.cache.csv.gz
Observed at (about 1 hour ago)
Identifier EBBR
EBCI 300520Z 21006KT 2000 BR NSC 05/05 Q1010 TEMPO 1200 BR
From batch tds/metars/production/2022/9/30/h05_m55_metars.cache.csv.gz
Observed at (about 1 hour ago)
Identifier EBCI
talk